»·PEaware :: FFT512 KBUR-KDAL

FFT512 :: KBUR-KDAL

FLIGHT INFORMATION

Flight Status: Arrived
Operator:
Frontier Airlines
More flights by this operator :: More flights under this callsign
Pilot: Ray S. (3734)
Aircraft: AIRBUS A320
(A320)
More flights by this aircraft type
Origin: KBUR Bob Hope-Burbank
United States
Destination: KDAL Dallas Love
United States
More flights between these airports :: More routes between these airports
Route: SLAPP1 HEC EED J6 ABQ J72 TXO TURKI JFRYE3
File this flight plan on PilotEdge
Remarks:
Altitude:
(Current/Filed)
37,000ft
Speed:
(Current/Filed)
450kts
Departed: 07-Aug-20 07:31 PM
Arrived: 07-Aug-20 10:03 PM
Distance/Time
Traveled:
1077nm/2:32
Distance/Time
To Go:
Arrived

Flight Plot

Page will automatically refresh every two minutes.

Flight plan parsing failed; only flown route is shown


Map Options




Map Legend


Flown Route
Filed Route
Departure Airport
Arrival Airport
Navaid (VOR, NDB)
Fix

Horizontal Profiles

Position Reports

Time Latitude Longitude Heading Altitude Ground
Speed
07-Aug-20 18:45 34.196795 -118.352868 179 704ft 0kts
07-Aug-20 18:46 34.196795 -118.352868 179 704ft 0kts
07-Aug-20 18:47 34.196795 -118.352868 179 704ft 0kts
07-Aug-20 18:56 34.196795 -118.352868 179 704ft 0kts
07-Aug-20 18:57 34.196795 -118.352868 179 704ft 0kts
07-Aug-20 18:58 34.196795 -118.352868 179 704ft 0kts
07-Aug-20 18:59 34.196795 -118.352868 179 704ft 0kts
07-Aug-20 19:00 34.196795 -118.352868 179 704ft 0kts
07-Aug-20 19:01 34.196795 -118.352868 179 704ft 0kts
07-Aug-20 19:02 34.196795 -118.352868 179 704ft 0kts
07-Aug-20 19:03 34.196795 -118.352868 179 704ft 0kts
07-Aug-20 19:04 34.196795 -118.352868 179 704ft 0kts
07-Aug-20 19:05 34.196795 -118.352868 179 704ft 0kts
07-Aug-20 19:06 34.196795 -118.352868 179 704ft 0kts
07-Aug-20 19:07 34.196795 -118.352868 179 704ft 0kts
07-Aug-20 19:08 34.196795 -118.352868 179 704ft 0kts
07-Aug-20 19:09 34.196795 -118.352868 179 704ft 0kts
07-Aug-20 19:10 34.196795 -118.352868 179 704ft 0kts
07-Aug-20 19:11 34.196795 -118.352868 179 704ft 0kts
07-Aug-20 19:12 34.196795 -118.352868 179 704ft 0kts
07-Aug-20 19:13 34.196795 -118.352868 179 704ft 0kts
07-Aug-20 19:14 34.196795 -118.352868 179 704ft 0kts
07-Aug-20 19:15 34.196795 -118.352868 179 704ft 0kts
07-Aug-20 19:16 34.196795 -118.352868 179 704ft 0kts
07-Aug-20 19:17 34.196795 -118.352868 179 704ft 0kts
07-Aug-20 19:18 34.196795 -118.352868 179 704ft 0kts
07-Aug-20 19:19 34.196795 -118.352868 179 704ft 0kts
07-Aug-20 19:20 34.196795 -118.352868 180 704ft 0kts
07-Aug-20 19:21 34.196795 -118.352868 180 704ft 0kts
07-Aug-20 19:22 34.197181 -118.352860 245 704ft 0kts
07-Aug-20 19:23 34.197183 -118.352947 267 704ft 0kts
07-Aug-20 19:24 34.197177 -118.353081 267 704ft 0kts
07-Aug-20 19:25 34.197697 -118.355071 336 710ft 11kts
07-Aug-20 19:26 34.200903 -118.355982 346 720ft 13kts
07-Aug-20 19:27 34.204679 -118.357032 347 735ft 15kts
07-Aug-20 19:28 34.208413 -118.358060 347 756ft 11kts
07-Aug-20 19:29 34.211516 -118.359010 320 768ft 7kts
07-Aug-20 19:30 34.208709 -118.359479 167 760ft 91kts
07-Aug-20 19:31 34.167936 -118.365970 221 3244ft 172kts
07-Aug-20 19:32 34.134129 -118.423205 273 4319ft 261kts
07-Aug-20 19:34 34.191462 -118.470660 352 7557ft 289kts
07-Aug-20 19:35 34.271104 -118.462957 32 10430ft 309kts
07-Aug-20 19:36 34.347382 -118.399329 33 12764ft 348kts
07-Aug-20 19:37 34.433245 -118.345589 19 14044ft 356kts
07-Aug-20 19:38 34.524112 -118.271442 38 14518ft 423kts
07-Aug-20 19:39 34.616288 -118.179155 38 16132ft 437kts
07-Aug-20 19:40 34.677813 -118.053983 78 17621ft 453kts
07-Aug-20 19:41 34.695879 -117.901231 86 19019ft 464kts
07-Aug-20 19:42 34.705074 -117.743654 87 20414ft 472kts
07-Aug-20 19:43 34.711378 -117.583404 87 21881ft 477kts
07-Aug-20 19:44 34.721507 -117.421279 84 23033ft 486kts
07-Aug-20 19:45 34.735160 -117.256033 84 24053ft 495kts
07-Aug-20 19:46 34.748555 -117.088007 85 24936ft 504kts
07-Aug-20 19:47 34.762143 -116.916920 84 25695ft 513kts
07-Aug-20 19:48 34.775662 -116.743627 84 26519ft 518kts
07-Aug-20 19:49 34.789065 -116.568364 84 27341ft 520kts
07-Aug-20 19:50 34.796465 -116.393173 90 28309ft 518kts
07-Aug-20 19:51 34.794948 -116.218895 91 29582ft 509kts
07-Aug-20 19:51 34.793535 -116.076813 91 30743ft 503kts
07-Aug-20 19:53 34.791275 -115.879635 93 32163ft 499kts
07-Aug-20 19:53 34.789474 -115.739267 93 33047ft 497kts
07-Aug-20 19:54 34.787118 -115.571720 93 34058ft 495kts
07-Aug-20 19:56 34.784096 -115.377312 93 35168ft 492kts
07-Aug-20 19:56 34.781787 -115.239330 94 35883ft 489kts
07-Aug-20 19:57 34.778810 -115.074533 94 36679ft 486kts
07-Aug-20 19:58 34.775545 -114.909760 94 36965ft 490kts
07-Aug-20 19:59 34.772103 -114.744085 94 36966ft 491kts
07-Aug-20 20:00 34.768437 -114.578711 94 36965ft 490kts
07-Aug-20 20:01 34.764540 -114.413016 94 36965ft 490kts
07-Aug-20 20:02 34.760445 -114.247637 94 36965ft 490kts
07-Aug-20 20:03 34.756101 -114.081901 94 36983ft 490kts
07-Aug-20 20:04 34.751570 -113.916937 94 37031ft 490kts
07-Aug-20 20:05 34.746838 -113.751220 94 37122ft 490kts
07-Aug-20 20:06 34.741762 -113.586027 94 37125ft 490kts
07-Aug-20 20:07 34.736580 -113.420672 94 37126ft 490kts
07-Aug-20 20:08 34.731039 -113.254637 95 37126ft 490kts
07-Aug-20 20:09 34.725395 -113.089683 95 37196ft 489kts
07-Aug-20 20:10 34.719514 -112.924638 95 37220ft 490kts
07-Aug-20 20:11 34.713391 -112.759160 95 37223ft 490kts
07-Aug-20 20:12 34.707048 -112.594178 95 37225ft 490kts
07-Aug-20 20:13 34.707318 -112.428507 85 37225ft 493kts
07-Aug-20 20:14 34.722606 -112.262668 85 37223ft 493kts
07-Aug-20 20:15 34.737554 -112.097504 85 37204ft 492kts
07-Aug-20 20:16 34.752289 -111.932143 85 37205ft 492kts
07-Aug-20 20:17 34.766824 -111.766524 85 37207ft 492kts
07-Aug-20 20:18 34.781108 -111.601140 85 37209ft 493kts
07-Aug-20 20:19 34.795255 -111.434849 85 37248ft 493kts
07-Aug-20 20:20 34.809137 -111.268975 86 37252ft 493kts
07-Aug-20 20:21 34.822755 -111.103392 86 37196ft 492kts
07-Aug-20 20:22 34.836138 -110.937878 86 37210ft 491kts
07-Aug-20 20:23 34.849248 -110.772928 86 37209ft 489kts
07-Aug-20 20:24 34.862111 -110.608157 86 37196ft 489kts
07-Aug-20 20:25 34.874782 -110.442897 86 37195ft 489kts
07-Aug-20 20:26 34.887174 -110.278278 86 37230ft 488kts
07-Aug-20 20:27 34.899361 -110.113338 87 37262ft 488kts
07-Aug-20 20:28 34.911293 -109.948864 87 37268ft 488kts
07-Aug-20 20:29 34.923000 -109.784415 87 37266ft 488kts
07-Aug-20 20:30 34.934490 -109.619830 87 37261ft 488kts
07-Aug-20 20:31 34.945769 -109.455036 87 37262ft 488kts
07-Aug-20 20:32 34.956825 -109.290204 87 37260ft 487kts
07-Aug-20 20:33 34.966981 -109.126292 89 37261ft 486kts
07-Aug-20 20:34 34.973912 -108.961274 89 37287ft 484kts
07-Aug-20 20:35 34.980581 -108.797585 89 37292ft 483kts
07-Aug-20 20:36 34.987015 -108.634199 89 37294ft 483kts
07-Aug-20 20:37 34.993246 -108.470390 89 37307ft 483kts
07-Aug-20 20:38 34.999247 -108.306849 90 37329ft 483kts
07-Aug-20 20:39 35.005034 -108.143191 90 37339ft 483kts
07-Aug-20 20:40 35.010604 -107.979345 90 37338ft 483kts
07-Aug-20 20:41 35.015941 -107.815919 90 37340ft 483kts
07-Aug-20 20:42 35.021055 -107.652577 90 37341ft 484kts
07-Aug-20 20:43 35.025986 -107.487978 90 37340ft 484kts
07-Aug-20 20:44 35.030674 -107.324095 91 37294ft 484kts
07-Aug-20 20:45 35.035131 -107.160696 91 37279ft 483kts
07-Aug-20 20:46 35.039389 -106.996370 91 37272ft 484kts
07-Aug-20 20:47 35.043125 -106.832202 93 37238ft 487kts
07-Aug-20 20:48 35.025795 -106.668156 101 37250ft 490kts
07-Aug-20 20:49 35.005625 -106.503774 101 37282ft 491kts
07-Aug-20 20:50 34.985186 -106.339082 101 37283ft 490kts
07-Aug-20 20:51 34.964595 -106.175081 101 37268ft 488kts
07-Aug-20 20:52 34.943880 -106.011957 100 37272ft 487kts
07-Aug-20 20:53 34.922976 -105.849239 100 37264ft 485kts
07-Aug-20 20:54 34.901982 -105.687086 100 37274ft 485kts
07-Aug-20 20:55 34.880767 -105.525380 100 37294ft 484kts
07-Aug-20 20:56 34.859323 -105.363683 100 37306ft 484kts
07-Aug-20 20:57 34.837652 -105.202000 101 37305ft 484kts
07-Aug-20 20:58 34.815861 -105.041097 101 37313ft 483kts
07-Aug-20 20:59 34.793905 -104.880598 101 37338ft 479kts
07-Aug-20 21:00 34.771816 -104.721011 101 37314ft 477kts
07-Aug-20 21:01 34.749742 -104.562885 101 37245ft 476kts
07-Aug-20 21:02 34.727408 -104.404412 101 37133ft 476kts
07-Aug-20 21:03 34.704858 -104.246019 102 37136ft 475kts
07-Aug-20 21:04 34.682140 -104.087912 102 37145ft 476kts
07-Aug-20 21:05 34.659195 -103.929722 102 37172ft 476kts
07-Aug-20 21:06 34.636027 -103.771505 102 37186ft 476kts
07-Aug-20 21:07 34.612696 -103.613635 102 37202ft 476kts
07-Aug-20 21:08 34.589018 -103.454907 102 37221ft 477kts
07-Aug-20 21:09 34.565200 -103.296698 102 37223ft 476kts
07-Aug-20 21:10 34.541282 -103.139263 102 37212ft 477kts
07-Aug-20 21:11 34.516982 -102.980764 101 37191ft 480kts
07-Aug-20 21:12 34.493289 -102.821586 97 37216ft 482kts
07-Aug-20 21:13 34.476742 -102.660024 97 37235ft 483kts
07-Aug-20 21:14 34.459999 -102.498919 97 37239ft 483kts
07-Aug-20 21:15 34.443017 -102.337455 98 37231ft 483kts
07-Aug-20 21:16 34.425858 -102.176541 98 37216ft 482kts
07-Aug-20 21:17 34.408499 -102.015709 98 37191ft 482kts
07-Aug-20 21:18 34.390899 -101.854651 98 37188ft 482kts
07-Aug-20 21:19 34.373108 -101.693907 98 37191ft 482kts
07-Aug-20 21:20 34.355134 -101.533431 98 37193ft 482kts
07-Aug-20 21:21 34.336923 -101.372789 98 37194ft 482kts
07-Aug-20 21:22 34.318511 -101.212269 98 37194ft 482kts
07-Aug-20 21:23 34.300073 -101.053413 98 37190ft 482kts
07-Aug-20 21:24 34.281274 -100.893159 98 37144ft 481kts
07-Aug-20 21:25 34.262310 -100.733299 97 37112ft 480kts
07-Aug-20 21:26 34.243171 -100.573840 97 37101ft 479kts
07-Aug-20 21:27 34.223885 -100.414882 97 37095ft 479kts
07-Aug-20 21:28 34.204142 -100.255681 100 37096ft 479kts
07-Aug-20 21:29 34.176345 -100.098399 102 37099ft 479kts
07-Aug-20 21:30 34.148174 -99.941713 102 37103ft 479kts
07-Aug-20 21:31 34.119698 -99.784488 102 37103ft 479kts
07-Aug-20 21:32 34.091055 -99.627570 102 37096ft 479kts
07-Aug-20 21:33 34.062135 -99.470346 102 37085ft 480kts
07-Aug-20 21:34 34.033051 -99.313434 102 37078ft 479kts
07-Aug-20 21:35 33.993127 -99.160966 111 37076ft 479kts
07-Aug-20 21:36 33.946079 -99.010703 110 37067ft 481kts
07-Aug-20 21:37 33.898444 -98.859438 110 34748ft 492kts
07-Aug-20 21:38 33.849398 -98.704443 111 31701ft 498kts
07-Aug-20 21:39 33.800373 -98.550200 111 29351ft 484kts
07-Aug-20 21:40 33.754738 -98.406830 111 26987ft 444kts
07-Aug-20 21:41 33.712040 -98.272450 112 23852ft 419kts
07-Aug-20 21:42 33.671354 -98.145666 113 21115ft 401kts
07-Aug-20 21:43 33.631976 -98.023513 112 19178ft 386kts
07-Aug-20 21:44 33.593841 -97.905438 112 17187ft 372kts
07-Aug-20 21:46 33.557033 -97.792065 112 15199ft 361kts
07-Aug-20 21:47 33.521260 -97.681706 111 13213ft 350kts
07-Aug-20 21:48 33.486808 -97.574756 111 10888ft 352kts
07-Aug-20 21:49 33.455738 -97.470187 96 10105ft 305kts
07-Aug-20 21:50 33.450146 -97.371256 98 10086ft 294kts
07-Aug-20 21:51 33.397194 -97.307027 155 8655ft 285kts
07-Aug-20 21:52 33.326488 -97.266560 154 7227ft 280kts
07-Aug-20 21:53 33.257189 -97.226585 154 5838ft 274kts
07-Aug-20 21:54 33.189334 -97.187541 154 4492ft 268kts
07-Aug-20 21:55 33.123703 -97.149837 154 3216ft 262kts
07-Aug-20 21:56 33.061293 -97.106256 138 3022ft 262kts
07-Aug-20 21:57 33.010832 -97.047919 136 3023ft 231kts
07-Aug-20 21:58 32.967050 -96.997228 135 3018ft 204kts
07-Aug-20 21:59 32.930403 -96.954883 135 2679ft 174kts
07-Aug-20 22:00 32.897205 -96.916548 136 1747ft 157kts
07-Aug-20 22:01 32.869944 -96.884987 136 1037ft 132kts
07-Aug-20 22:02 32.844691 -96.855745 136 476ft 92kts
07-Aug-20 22:03 32.842899 -96.851910 316 478ft 17kts
07-Aug-20 22:04 32.846435 -96.853344 5 478ft 15kts
07-Aug-20 22:05 32.846325 -96.852222 136 480ft 2kts
07-Aug-20 22:06 32.846336 -96.852234 136 480ft 0kts
07-Aug-20 22:06 32.846336 -96.852234 136 480ft 0kts
07-Aug-20 22:08 32.846336 -96.852234 136 480ft 0kts
07-Aug-20 22:08 32.846336 -96.852234 136 480ft 0kts
07-Aug-20 22:09 32.846336 -96.852234 136 480ft 0kts

Navigation Log

Ident Type
Flight plan parsing failed, navigation log unavailable